Time;durP1;ratioP1;P1;durP2;ratioP2;P2;SDS_P1;SDS_P2;PMS_P1;PMS_P2;Temp;Humidity;BMP_temperature;BMP_pressure;BME280_temperature;BME280_humidity;BME280_pressure;Samples;Min_cycle;Max_cycle;Signal;HPM_P1;HPM_P2
2024/01/16 00:01:09;;;;;;;;;;;;;;;2.96;91.64;93786.28;5095673;28;1174;-58
2024/01/16 00:03:44;;;;;;;;;;;;;;;2.72;90.71;93784.19;5095622;28;1000;-58
2024/01/16 00:06:18;;;;;;;;;;;;;;;2.72;92.79;93784.19;5095411;28;1989;-58
2024/01/16 00:08:53;;;;;;;;;;;;;;;2.93;92.22;93800.59;5095574;28;953;-58
2024/01/16 00:11:27;;;;;;;;;;;;;;;2.70;92.35;93797.53;5095600;28;952;-58
2024/01/16 00:13:59;;;;;;;;;;;;;;;2.73;92.02;93797.25;5095702;28;1726;-58
2024/01/16 00:16:33;;;;;;;;;;;;;;;2.81;91.10;93801.78;5095574;28;914;-58
2024/01/16 00:19:07;;;;;;;;;;;;;;;2.85;91.12;93805.78;5095742;28;955;-58
2024/01/16 00:21:47;;;;;;;;;;;;;;;2.84;90.72;93806.75;5095357;28;1072;-58
2024/01/16 00:24:22;;;;;;;;;;;;;;;2.83;91.14;93799.81;5093276;28;1013;-58
2024/01/16 00:26:56;;;;;;;;;;;;;;;2.69;91.84;93802.94;5095208;28;1906;-58
2024/01/16 00:29:30;;;;;;;;;;;;;;;2.52;92.49;93802.75;5095348;28;976;-58
2024/01/16 00:32:05;;;;;;;;;;;;;;;2.66;92.85;93827.81;5095357;28;1028;-58
2024/01/16 00:34:40;;;;;;;;;;;;;;;2.72;94.12;93832.50;5095255;28;1611;-58
2024/01/16 00:37:15;;;;;;;;;;;;;;;2.39;93.80;93807.53;5095254;28;921;-58
2024/01/16 00:39:49;;;;;;;;;;;;;;;2.27;94.83;93795.47;5094921;28;945;-58
2024/01/16 00:42:23;;;;;;;;;;;;;;;2.50;94.81;93798.56;5093882;28;995;-58
2024/01/16 00:44:58;;;;;;;;;;;;;;;2.65;94.20;93799.75;5094994;28;953;-58
2024/01/16 00:47:32;;;;;;;;;;;;;;;2.58;93.97;93811.91;5094927;28;1910;-58
2024/01/16 00:50:07;;;;;;;;;;;;;;;2.54;93.30;93808.72;5094709;28;946;-58
2024/01/16 00:52:41;;;;;;;;;;;;;;;2.36;94.32;93815.72;5087284;28;1344;-59
2024/01/16 00:55:15;;;;;;;;;;;;;;;2.38;95.17;93826.13;5074670;28;903;-58
2024/01/16 00:57:51;;;;;;;;;;;;;;;2.57;96.10;93822.59;5074667;28;940;-58
2024/01/16 01:00:25;;;;;;;;;;;;;;;2.67;94.15;93826.00;5074231;28;865;-58
2024/01/16 01:03:00;;;;;;;;;;;;;;;2.64;95.08;93813.94;5074570;28;948;-58
2024/01/16 01:05:34;;;;;;;;;;;;;;;2.50;94.56;93827.59;5074012;28;1909;-58
2024/01/16 01:08:07;;;;;;;;;;;;;;;2.51;96.49;93832.75;5074299;28;1990;-58
2024/01/16 01:10:41;;;;;;;;;;;;;;;2.39;96.24;93827.78;5074401;28;1008;-58
2024/01/16 01:13:16;;;;;;;;;;;;;;;2.23;96.62;93821.31;5074267;28;929;-58
2024/01/16 01:15:50;;;;;;;;;;;;;;;2.39;96.74;93826.00;5074252;28;1029;-58
2024/01/16 01:18:24;;;;;;;;;;;;;;;2.65;96.12;93825.31;5073833;28;976;-58
2024/01/16 01:20:59;;;;;;;;;;;;;;;2.76;95.89;93817.22;5074240;28;950;-58
2024/01/16 01:23:33;;;;;;;;;;;;;;;2.89;95.66;93822.16;5073682;28;1007;-58
2024/01/16 01:26:05;;;;;;;;;;;;;;;3.03;95.13;93819.00;5073525;28;1917;-58
2024/01/16 01:28:40;;;;;;;;;;;;;;;3.04;95.80;93838.34;5074041;28;925;-58
2024/01/16 01:31:14;;;;;;;;;;;;;;;2.90;96.95;93829.94;5073939;28;965;-58
2024/01/16 01:33:49;;;;;;;;;;;;;;;2.84;98.17;93824.41;5073565;28;926;-58
2024/01/16 01:36:23;;;;;;;;;;;;;;;2.78;99.75;93831.09;5073798;28;990;-58
2024/01/16 01:38:57;;;;;;;;;;;;;;;3.03;97.79;93831.38;5073895;28;932;-58
2024/01/16 01:41:32;;;;;;;;;;;;;;;3.17;97.56;93828.25;5073437;28;946;-58
2024/01/16 01:44:06;;;;;;;;;;;;;;;3.22;97.03;93822.53;5073587;28;921;-58
2024/01/16 01:46:41;;;;;;;;;;;;;;;3.28;97.62;93822.78;5073830;28;2003;-58
2024/01/16 01:49:16;;;;;;;;;;;;;;;3.39;96.85;93824.34;5073645;28;917;-58
2024/01/16 01:51:51;;;;;;;;;;;;;;;3.35;97.28;93822.16;5072222;28;1461;-58
2024/01/16 01:54:26;;;;;;;;;;;;;;;3.49;98.37;93832.19;5093809;28;914;-58
2024/01/16 01:57:01;;;;;;;;;;;;;;;3.30;100.00;93822.59;5093888;28;913;-58
2024/01/16 01:59:33;;;;;;;;;;;;;;;3.22;100.00;93828.63;5093633;28;929;-58
2024/01/16 02:02:07;;;;;;;;;;;;;;;3.40;99.69;93828.66;5093514;28;980;-58
2024/01/16 02:04:43;;;;;;;;;;;;;;;3.49;99.42;93834.84;5093730;28;1005;-58
2024/01/16 02:07:17;;;;;;;;;;;;;;;3.36;100.00;93832.59;5093432;28;1914;-58
2024/01/16 02:09:52;;;;;;;;;;;;;;;3.37;100.00;93842.16;5093490;28;965;-58
2024/01/16 02:12:24;;;;;;;;;;;;;;;3.49;100.00;93846.25;5093457;28;1476;-58
2024/01/16 02:14:59;;;;;;;;;;;;;;;3.66;100.00;93834.03;5093702;28;1005;-58
2024/01/16 02:17:33;;;;;;;;;;;;;;;3.54;100.00;93837.88;5093327;28;929;-58
2024/01/16 02:20:08;;;;;;;;;;;;;;;3.55;100.00;93836.91;5093306;28;950;-58
2024/01/16 02:22:42;;;;;;;;;;;;;;;3.75;100.00;93842.03;5093466;28;1348;-58
2024/01/16 02:25:17;;;;;;;;;;;;;;;3.75;100.00;93850.78;5093545;28;921;-58
2024/01/16 02:27:51;;;;;;;;;;;;;;;3.77;100.00;93848.81;5093281;28;1910;-58
2024/01/16 02:30:25;;;;;;;;;;;;;;;3.90;100.00;93854.53;5093034;28;906;-58
2024/01/16 02:33:00;;;;;;;;;;;;;;;3.97;100.00;93857.44;5093431;28;910;-58
2024/01/16 02:35:34;;;;;;;;;;;;;;;3.99;99.38;93847.53;5093425;28;1008;-58
2024/01/16 02:38:08;;;;;;;;;;;;;;;3.88;100.00;93867.09;5093226;28;933;-58
2024/01/16 02:40:43;;;;;;;;;;;;;;;3.91;100.00;93874.72;5093094;28;1838;-58
2024/01/16 02:43:17;;;;;;;;;;;;;;;3.79;100.00;93883.84;5093359;28;997;-58
2024/01/16 02:45:52;;;;;;;;;;;;;;;3.77;100.00;93896.41;5093105;28;1905;-58
2024/01/16 02:48:26;;;;;;;;;;;;;;;3.80;100.00;93904.03;5097211;28;953;-58
2024/01/16 02:51:01;;;;;;;;;;;;;;;3.83;100.00;93905.53;5097188;28;1000;-58
2024/01/16 02:53:35;;;;;;;;;;;;;;;3.90;100.00;93915.38;5082411;28;1189;-58
2024/01/16 02:56:09;;;;;;;;;;;;;;;3.76;100.00;93907.16;5076759;28;941;-58
2024/01/16 02:58:44;;;;;;;;;;;;;;;3.65;100.00;93911.66;5076715;28;949;-59
2024/01/16 03:01:18;;;;;;;;;;;;;;;3.72;100.00;93907.44;5076606;28;1003;-58
2024/01/16 03:03:53;;;;;;;;;;;;;;;3.90;100.00;93914.53;5070390;28;1083;-58
2024/01/16 03:06:28;;;;;;;;;;;;;;;4.07;100.00;93904.94;5056569;28;1977;-58
2024/01/16 03:09:02;;;;;;;;;;;;;;;4.14;100.00;93913.13;5056580;28;949;-58
2024/01/16 03:11:37;;;;;;;;;;;;;;;4.11;100.00;93917.69;5055456;28;928;-58
2024/01/16 03:14:11;;;;;;;;;;;;;;;4.17;100.00;93908.31;5056453;28;1005;-58
2024/01/16 03:16:44;;;;;;;;;;;;;;;4.26;100.00;93918.00;5056704;28;982;-58
2024/01/16 03:19:18;;;;;;;;;;;;;;;4.32;100.00;93921.84;5056519;28;1013;-58
2024/01/16 03:21:53;;;;;;;;;;;;;;;4.14;100.00;93932.47;5056205;28;998;-58
2024/01/16 03:24:27;;;;;;;;;;;;;;;4.12;100.00;93929.13;5056471;28;1012;-59
2024/01/16 03:27:02;;;;;;;;;;;;;;;4.30;100.00;93934.41;5056104;28;1906;-58
2024/01/16 03:29:34;;;;;;;;;;;;;;;4.34;100.00;93927.00;5068330;28;1535;-58
2024/01/16 03:32:08;;;;;;;;;;;;;;;4.39;100.00;93936.13;5076271;28;1025;-58
2024/01/16 03:34:42;;;;;;;;;;;;;;;4.37;100.00;93924.06;5075999;28;1764;-57
2024/01/16 03:37:17;;;;;;;;;;;;;;;4.42;100.00;93937.63;5075812;28;961;-58
2024/01/16 03:39:51;;;;;;;;;;;;;;;4.41;100.00;93943.94;5076259;28;957;-58
2024/01/16 03:42:25;;;;;;;;;;;;;;;4.47;100.00;93943.31;5075971;28;1056;-58
2024/01/16 03:45:00;;;;;;;;;;;;;;;4.50;100.00;93951.78;5075909;28;942;-58
2024/01/16 03:47:34;;;;;;;;;;;;;;;4.54;100.00;93967.34;5075748;28;1914;-58
2024/01/16 03:50:09;;;;;;;;;;;;;;;4.49;100.00;93967.81;5075802;28;938;-58
2024/01/16 03:52:42;;;;;;;;;;;;;;;4.32;100.00;93971.28;5082739;28;1542;-58
2024/01/16 03:55:17;;;;;;;;;;;;;;;4.24;100.00;93978.16;5095872;28;1000;-58
2024/01/16 03:57:51;;;;;;;;;;;;;;;4.25;100.00;93987.78;5094866;28;1032;-58
2024/01/16 04:00:25;;;;;;;;;;;;;;;4.33;100.00;93997.63;5095747;28;945;-58
2024/01/16 04:02:59;;;;;;;;;;;;;;;4.36;100.00;93996.47;5095985;28;1495;-58
2024/01/16 04:05:34;;;;;;;;;;;;;;;4.28;100.00;93999.88;5095969;28;930;-58
2024/01/16 04:08:09;;;;;;;;;;;;;;;4.03;100.00;94001.44;5095817;28;1012;-59
2024/01/16 04:10:43;;;;;;;;;;;;;;;4.04;100.00;93997.81;5095566;28;925;-59
2024/01/16 04:13:17;;;;;;;;;;;;;;;3.97;100.00;94018.75;5095661;28;937;-58
2024/01/16 04:15:52;;;;;;;;;;;;;;;4.01;100.00;94017.47;5095833;28;913;-58
2024/01/16 04:18:26;;;;;;;;;;;;;;;4.00;100.00;94026.38;5095579;28;1012;-59
2024/01/16 04:20:59;;;;;;;;;;;;;;;4.01;100.00;94033.34;5095470;28;934;-58
2024/01/16 04:23:33;;;;;;;;;;;;;;;4.01;100.00;94035.97;5298441;22;4119;-59
2024/01/16 04:26:08;;;;;;;;;;;;;;;4.08;100.00;94023.81;5055337;28;1914;-58
2024/01/16 04:28:39;;;;;;;;;;;;;;;4.15;100.00;94041.75;5055303;28;1449;-59
2024/01/16 04:31:12;;;;;;;;;;;;;;;4.23;100.00;94045.31;5055216;28;1614;-59
2024/01/16 04:33:44;;;;;;;;;;;;;;;4.36;100.00;94039.63;5055118;28;1005;-59
2024/01/16 04:36:16;;;;;;;;;;;;;;;4.38;100.00;94042.13;5055144;28;1562;-59
2024/01/16 04:38:49;;;;;;;;;;;;;;;4.45;100.00;94045.84;5055120;28;1629;-59
2024/01/16 04:41:21;;;;;;;;;;;;;;;4.38;100.00;94048.28;5055014;28;1566;-59
2024/01/16 04:43:55;;;;;;;;;;;;;;;4.26;100.00;94050.28;5054929;28;1008;-59
2024/01/16 04:46:28;;;;;;;;;;;;;;;4.22;100.00;94059.50;5054736;28;1943;-58
2024/01/16 04:49:02;;;;;;;;;;;;;;;4.23;100.00;94053.25;5055013;28;925;-59
2024/01/16 04:51:35;;;;;;;;;;;;;;;4.44;100.00;94063.56;5054722;28;2345;-59
2024/01/16 04:54:11;;;;;;;;;;;;;;;4.69;100.00;94061.97;5074062;28;1657;-59
2024/01/16 04:56:42;;;;;;;;;;;;;;;4.86;100.00;94070.88;5074548;28;1999;-59
2024/01/16 04:59:15;;;;;;;;;;;;;;;4.92;100.00;94087.16;5074485;28;1570;-59
2024/01/16 05:01:47;;;;;;;;;;;;;;;4.90;100.00;94095.25;5074527;28;2182;-59
2024/01/16 05:04:21;;;;;;;;;;;;;;;4.88;100.00;94097.22;5074481;28;1003;-59
2024/01/16 05:06:55;;;;;;;;;;;;;;;4.99;100.00;94106.72;5074133;28;1980;-59
2024/01/16 05:09:27;;;;;;;;;;;;;;;5.04;100.00;94104.47;5073803;28;1763;-58
2024/01/16 05:12:01;;;;;;;;;;;;;;;5.12;100.00;94115.09;5073959;28;1639;-58
2024/01/16 05:14:33;;;;;;;;;;;;;;;5.04;100.00;94117.69;5074122;28;1597;-58
2024/01/16 05:17:05;;;;;;;;;;;;;;;5.09;99.09;94116.25;5074198;28;1625;-58
2024/01/16 05:19:38;;;;;;;;;;;;;;;5.02;96.92;94123.16;5073958;28;1436;-58
2024/01/16 05:22:11;;;;;;;;;;;;;;;4.99;95.81;94127.91;5074070;28;2364;-58
2024/01/16 05:24:42;;;;;;;;;;;;;;;4.98;95.29;94129.75;5054655;28;1475;-59
2024/01/16 05:27:14;;;;;;;;;;;;;;;5.02;94.30;94138.22;5044214;28;1918;-58
2024/01/16 05:29:48;;;;;;;;;;;;;;;5.04;94.56;94139.72;5039102;28;1288;-58
2024/01/16 05:32:20;;;;;;;;;;;;;;;5.05;94.87;94148.53;5033887;28;1436;-58
2024/01/16 05:34:53;;;;;;;;;;;;;;;5.08;94.74;94157.00;5034050;28;1844;-58
2024/01/16 05:37:25;;;;;;;;;;;;;;;4.98;94.53;94152.75;5033931;28;1394;-58
2024/01/16 05:39:58;;;;;;;;;;;;;;;4.97;94.22;94159.03;5041969;28;1337;-58
2024/01/16 05:42:30;;;;;;;;;;;;;;;4.92;94.12;94180.69;5043056;28;1447;-58
2024/01/16 05:45:03;;;;;;;;;;;;;;;4.95;93.15;94176.88;5044303;28;1552;-58
2024/01/16 05:47:35;;;;;;;;;;;;;;;4.95;92.64;94180.41;5043774;28;1915;-58
2024/01/16 05:53:26;;;;;;;;;;;;;;;4.92;88.65;94203.69;5066503;28;1522;-58
2024/01/16 05:56:00;;;;;;;;;;;;;;;4.93;88.70;94208.81;5072403;28;1645;-58
2024/01/16 05:58:38;;;;;;;;;;;;;;;4.87;88.35;94212.91;5073664;28;944;-58
2024/01/16 06:01:13;;;;;;;;;;;;;;;4.83;87.07;94224.78;5073611;28;988;-59
2024/01/16 06:03:48;;;;;;;;;;;;;;;4.84;86.14;94229.09;5034220;28;2101;-59
2024/01/16 06:06:20;;;;;;;;;;;;;;;4.81;86.25;94237.34;5033130;28;1918;-59
2024/01/16 06:08:55;;;;;;;;;;;;;;;4.84;85.39;94254.78;5033554;28;930;-60
2024/01/16 06:11:32;;;;;;;;;;;;;;;4.93;85.51;94260.97;5033308;28;1416;-59
2024/01/16 06:14:04;;;;;;;;;;;;;;;4.98;83.98;94262.19;5033404;28;1542;-59
2024/01/16 06:16:39;;;;;;;;;;;;;;;4.98;83.82;94285.22;5033269;28;1004;-59
2024/01/16 06:19:08;;;;;;;;;;;;;;;4.86;83.83;94289.88;5033240;28;1468;-59
2024/01/16 06:21:42;;;;;;;;;;;;;;;4.87;84.94;94304.78;5032689;28;1017;-59
2024/01/16 06:24:16;;;;;;;;;;;;;;;4.81;82.83;94306.19;5033051;28;1583;-59
2024/01/16 06:26:49;;;;;;;;;;;;;;;4.84;82.71;94313.03;5033118;28;1994;-59
2024/01/16 06:29:23;;;;;;;;;;;;;;;4.81;81.63;94308.84;5033292;28;918;-59
2024/01/16 06:31:55;;;;;;;;;;;;;;;4.78;82.06;94314.44;5033234;28;1453;-59
2024/01/16 06:34:28;;;;;;;;;;;;;;;4.88;81.23;94317.88;5033167;28;1677;-60
2024/01/16 06:37:01;;;;;;;;;;;;;;;4.95;81.34;94317.28;5032847;28;1664;-59
2024/01/16 06:39:33;;;;;;;;;;;;;;;4.98;82.43;94338.19;5033078;28;1758;-59
2024/01/16 06:42:07;;;;;;;;;;;;;;;5.00;83.01;94355.59;5032998;28;1031;-59
2024/01/16 06:44:40;;;;;;;;;;;;;;;5.06;83.19;94362.94;5033204;28;1511;-59
2024/01/16 06:47:14;;;;;;;;;;;;;;;5.04;83.66;94382.63;5033051;28;1985;-59
2024/01/16 06:49:47;;;;;;;;;;;;;;;5.01;83.33;94391.72;5032973;28;1587;-60
2024/01/16 06:52:19;;;;;;;;;;;;;;;5.03;82.68;94402.19;5040998;28;1613;-59
2024/01/16 06:54:52;;;;;;;;;;;;;;;5.01;82.11;94420.03;5072654;28;1530;-60
2024/01/16 06:57:24;;;;;;;;;;;;;;;5.03;82.67;94408.31;5072885;28;1572;-60
2024/01/16 06:59:58;;;;;;;;;;;;;;;5.09;83.02;94417.50;5072757;28;1054;-60
2024/01/16 07:02:31;;;;;;;;;;;;;;;5.00;82.71;94410.41;5072816;28;1538;-59
2024/01/16 07:05:03;;;;;;;;;;;;;;;5.08;82.27;94415.81;5072611;28;2016;-59
2024/01/16 07:07:36;;;;;;;;;;;;;;;5.20;81.12;94419.13;5072320;28;1913;-59
2024/01/16 07:10:17;;;;;;;;;;;;;;;5.16;81.40;94418.59;5072783;28;929;-58
2024/01/16 07:12:52;;;;;;;;;;;;;;;5.21;81.74;94431.38;5072335;28;965;-60
2024/01/16 07:15:25;;;;;;;;;;;;;;;5.21;81.36;94445.47;5045798;28;1586;-60
2024/01/16 07:18:00;;;;;;;;;;;;;;;5.19;81.71;94452.72;5032508;28;849;-60
2024/01/16 07:20:34;;;;;;;;;;;;;;;5.09;82.30;94458.06;5032059;28;962;-60
2024/01/16 07:23:08;;;;;;;;;;;;;;;5.19;81.75;94479.22;5032525;28;997;-59
2024/01/16 07:25:42;;;;;;;;;;;;;;;5.13;81.88;94490.41;5032404;28;1141;-59
2024/01/16 07:28:17;;;;;;;;;;;;;;;4.93;82.76;94502.84;5032462;28;1733;-60
2024/01/16 07:30:52;;;;;;;;;;;;;;;4.88;83.30;94510.41;5032513;28;989;-60
2024/01/16 07:33:26;;;;;;;;;;;;;;;4.84;83.31;94517.81;5034740;28;946;-60
2024/01/16 07:36:00;;;;;;;;;;;;;;;4.81;83.77;94519.91;5036018;28;933;-60
2024/01/16 07:38:32;;;;;;;;;;;;;;;4.91;83.35;94526.00;5036122;28;1371;-60
2024/01/16 07:41:06;;;;;;;;;;;;;;;4.81;83.51;94527.84;5036208;28;963;-60
2024/01/16 07:43:40;;;;;;;;;;;;;;;4.75;82.47;94547.78;5036031;28;1006;-59
2024/01/16 07:46:16;;;;;;;;;;;;;;;4.79;83.15;94559.75;5036056;28;1906;-60
2024/01/16 07:48:49;;;;;;;;;;;;;;;4.72;84.47;94569.25;5035953;28;883;-60
2024/01/16 07:51:23;;;;;;;;;;;;;;;4.83;82.59;94565.63;5035672;28;1091;-59
2024/01/16 07:54:04;;;;;;;;;;;;;;;4.70;83.42;94565.91;5068326;28;1158;-60
2024/01/16 07:56:30;;;;;;;;;;;;;;;4.82;83.28;94583.34;5075745;28;1035;-60
2024/01/16 07:58:56;;;;;;;;;;;;;;;4.88;83.26;94587.22;5075441;28;1099;-60
2024/01/16 08:01:21;;;;;;;;;;;;;;;4.71;83.74;94598.53;5075378;28;1036;-60
2024/01/16 08:03:47;;;;;;;;;;;;;;;4.79;83.19;94602.13;5075404;28;988;-60
2024/01/16 08:06:13;;;;;;;;;;;;;;;4.94;82.58;94615.81;5075482;28;1984;-60
2024/01/16 08:08:39;;;;;;;;;;;;;;;4.88;83.33;94617.19;5074198;28;1149;-60
2024/01/16 08:11:05;;;;;;;;;;;;;;;4.97;83.18;94630.56;5075332;28;977;-60
2024/01/16 08:13:31;;;;;;;;;;;;;;;4.99;83.63;94633.91;5074989;28;1076;-60
2024/01/16 08:15:57;;;;;;;;;;;;;;;5.04;83.73;94648.41;5075462;28;1000;-60
2024/01/16 08:18:23;;;;;;;;;;;;;;;5.04;83.43;94653.72;5075290;28;1053;-60
2024/01/16 08:20:49;;;;;;;;;;;;;;;5.04;82.15;94653.72;5075188;28;1052;-60
2024/01/16 08:23:15;;;;;;;;;;;;;;;5.15;79.79;94663.34;5074942;28;1107;-60
2024/01/16 08:25:41;;;;;;;;;;;;;;;5.16;79.44;94667.69;5074828;28;1081;-60
2024/01/16 08:28:07;;;;;;;;;;;;;;;5.04;78.41;94682.88;5075125;28;1984;-60
2024/01/16 08:30:33;;;;;;;;;;;;;;;4.88;78.92;94690.53;5074785;28;1044;-60
2024/01/16 08:32:59;;;;;;;;;;;;;;;4.87;77.55;94700.28;5075084;28;1034;-59
2024/01/16 08:35:25;;;;;;;;;;;;;;;4.70;78.04;94711.53;5074688;28;1021;-60
2024/01/16 08:37:51;;;;;;;;;;;;;;;4.67;78.22;94715.31;5074704;28;1025;-60
2024/01/16 08:40:17;;;;;;;;;;;;;;;4.67;77.03;94715.31;5074492;28;1123;-60
2024/01/16 08:42:43;;;;;;;;;;;;;;;4.59;76.89;94720.47;5074519;28;1191;-59
2024/01/16 08:45:09;;;;;;;;;;;;;;;4.60;77.20;94721.28;5073801;28;1021;-59
2024/01/16 08:47:35;;;;;;;;;;;;;;;4.63;75.59;94729.81;5074621;28;1914;-60
2024/01/16 08:50:02;;;;;;;;;;;;;;;4.81;76.47;94726.50;5073358;28;978;-60
2024/01/16 08:52:28;;;;;;;;;;;;;;;4.95;74.17;94733.19;5069166;28;1161;-59
2024/01/16 08:54:54;;;;;;;;;;;;;;;5.06;73.65;94728.59;5054440;28;1048;-60
2024/01/16 08:57:20;;;;;;;;;;;;;;;5.20;72.92;94732.69;5054582;28;1059;-60
2024/01/16 08:59:46;;;;;;;;;;;;;;;5.21;71.42;94736.16;5054661;28;973;-60
2024/01/16 09:02:12;;;;;;;;;;;;;;;5.07;71.98;94737.41;5054469;28;985;-60
2024/01/16 09:04:38;;;;;;;;;;;;;;;4.96;72.83;94734.91;5054537;28;1037;-60
2024/01/16 09:07:04;;;;;;;;;;;;;;;4.88;71.54;94738.22;5054370;28;1984;-60
2024/01/16 09:09:30;;;;;;;;;;;;;;;4.82;70.87;94744.91;5054061;28;977;-60
2024/01/16 09:11:57;;;;;;;;;;;;;;;4.97;70.09;94757.75;5053994;28;1032;-60
2024/01/16 09:14:23;;;;;;;;;;;;;;;4.98;68.68;94762.09;5053029;28;971;-60
2024/01/16 09:16:50;;;;;;;;;;;;;;;5.09;69.46;94756.66;5054286;28;988;-60
2024/01/16 09:19:16;;;;;;;;;;;;;;;5.23;69.41;94761.53;5053797;28;1063;-60
2024/01/16 09:21:42;;;;;;;;;;;;;;;5.27;67.75;94762.13;5053890;28;1037;-60
2024/01/16 09:24:08;;;;;;;;;;;;;;;5.24;65.12;94768.53;5053715;28;1208;-61
2024/01/16 09:26:34;;;;;;;;;;;;;;;5.30;64.09;94753.91;5053577;28;1910;-60
2024/01/16 09:29:00;;;;;;;;;;;;;;;5.36;64.14;94757.81;5054040;28;1036;-60
2024/01/16 09:31:26;;;;;;;;;;;;;;;5.39;63.60;94752.25;5054155;28;984;-60
2024/01/16 09:33:52;;;;;;;;;;;;;;;5.44;63.74;94761.44;5053877;28;1024;-60
2024/01/16 09:36:18;;;;;;;;;;;;;;;5.50;60.68;94772.44;5053724;28;976;-60
2024/01/16 09:38:44;;;;;;;;;;;;;;;5.53;62.46;94765.06;5053836;28;965;-60
2024/01/16 09:41:10;;;;;;;;;;;;;;;5.58;62.43;94754.06;5053512;28;1099;-60
2024/01/16 09:43:36;;;;;;;;;;;;;;;5.48;61.42;94767.28;5053774;28;945;-60
2024/01/16 09:46:04;;;;;;;;;;;;;;;5.44;61.56;94764.09;5053689;28;1914;-60
2024/01/16 09:48:31;;;;;;;;;;;;;;;5.31;61.31;94767.97;5053318;28;1024;-60
2024/01/16 09:50:57;;;;;;;;;;;;;;;5.48;62.22;94757.53;5053548;28;1039;-60
2024/01/16 09:53:23;;;;;;;;;;;;;;;5.55;62.86;94749.00;5066025;28;1149;-60
2024/01/16 09:55:50;;;;;;;;;;;;;;;5.74;61.61;94750.81;5073466;28;1011;-60
2024/01/16 09:58:17;;;;;;;;;;;;;;;5.77;63.00;94758.50;5073443;28;1035;-61
2024/01/16 10:00:44;;;;;;;;;;;;;;;5.75;60.19;94769.25;5073583;28;981;-60
2024/01/16 10:03:13;;;;;;;;;;;;;;;5.80;60.94;94764.34;5073529;28;976;-60
2024/01/16 10:05:41;;;;;;;;;;;;;;;5.79;61.07;94764.50;5073212;28;938;-61
2024/01/16 10:08:07;;;;;;;;;;;;;;;5.80;63.65;94760.84;5073130;28;1938;-61
2024/01/16 10:10:34;;;;;;;;;;;;;;;6.03;63.19;94761.41;5073256;28;996;-60
2024/01/16 10:12:59;;;;;;;;;;;;;;;6.17;62.30;94765.44;5073202;28;1015;-60
2024/01/16 10:15:25;;;;;;;;;;;;;;;6.10;62.27;94764.34;5073040;28;917;-60
2024/01/16 10:17:52;;;;;;;;;;;;;;;6.10;61.07;94765.16;5073356;28;969;-60
2024/01/16 10:20:31;;;;;;;;;;;;;;;6.10;61.05;94756.38;5073151;28;1056;-60
2024/01/16 10:22:58;;;;;;;;;;;;;;;6.12;60.13;94757.06;5073095;28;1048;-60
2024/01/16 10:25:24;;;;;;;;;;;;;;;6.09;60.50;94754.69;5072862;28;1220;-60
2024/01/16 10:28:02;;;;;;;;;;;;;;;6.15;60.43;94762.09;5073061;28;1996;-60
2024/01/16 10:30:29;;;;;;;;;;;;;;;6.17;60.44;94766.28;5073308;28;1060;-60
2024/01/16 10:32:55;;;;;;;;;;;;;;;6.35;59.96;94782.28;5073116;28;1037;-61
2024/01/16 10:35:21;;;;;;;;;;;;;;;6.17;58.20;94787.50;5072897;28;1048;-60
2024/01/16 10:37:50;;;;;;;;;;;;;;;6.07;59.23;94784.06;5073387;28;987;-60
2024/01/16 10:40:20;;;;;;;;;;;;;;;6.15;58.29;94786.00;5073169;28;974;-60
2024/01/16 10:42:56;;;;;;;;;;;;;;;6.05;57.29;94797.47;5058360;28;1094;-60
2024/01/16 10:45:22;;;;;;;;;;;;;;;6.02;56.51;94797.72;5033270;28;1246;-60
2024/01/16 10:48:00;;;;;;;;;;;;;;;6.02;56.82;94795.06;5039737;28;1902;-61
2024/01/16 10:50:26;;;;;;;;;;;;;;;5.93;56.13;94782.63;5043397;28;1305;-60
2024/01/16 10:52:54;;;;;;;;;;;;;;;5.93;56.04;94782.63;5045663;28;1225;-60
2024/01/16 10:55:22;;;;;;;;;;;;;;;5.74;54.90;94783.47;5042325;28;1221;-60
2024/01/16 10:57:49;;;;;;;;;;;;;;;5.66;56.09;94780.69;5043245;28;1284;-59
2024/01/16 11:00:18;;;;;;;;;;;;;;;5.70;56.15;94787.41;5042136;28;1248;-60
2024/01/16 11:02:49;;;;;;;;;;;;;;;5.80;56.55;94782.91;5041409;28;1264;-60
2024/01/16 11:05:16;;;;;;;;;;;;;;;5.87;54.85;94777.88;5042018;28;1435;-59
2024/01/16 11:07:43;;;;;;;;;;;;;;;5.98;55.45;94782.25;5042951;28;1913;-59
2024/01/16 11:10:10;;;;;;;;;;;;;;;5.96;54.73;94779.72;5045137;28;1280;-59
2024/01/16 11:12:40;;;;;;;;;;;;;;;6.04;55.86;94785.16;5045302;28;1307;-60
2024/01/16 11:15:07;;;;;;;;;;;;;;;6.05;55.38;94791.28;5046859;28;1359;-59
2024/01/16 11:17:37;;;;;;;;;;;;;;;6.21;54.05;94788.06;5045318;28;1225;-59
2024/01/16 11:20:09;;;;;;;;;;;;;;;6.28;53.87;94793.63;5045413;28;1236;-60
2024/01/16 11:22:39;;;;;;;;;;;;;;;6.32;52.83;94793.22;5046101;28;1232;-59
2024/01/16 11:25:12;;;;;;;;;;;;;;;6.38;53.46;94802.41;5046573;28;1288;-60
2024/01/16 11:27:38;;;;;;;;;;;;;;;6.40;51.98;94797.81;5045670;28;1910;-60
2024/01/16 11:30:08;;;;;;;;;;;;;;;6.50;52.49;94806.56;5045057;28;1260;-59
2024/01/16 11:32:40;;;;;;;;;;;;;;;6.55;52.52;94795.53;5045102;28;1225;-59
2024/01/16 11:35:09;;;;;;;;;;;;;;;6.63;52.39;94801.75;5044730;28;1244;-60
2024/01/16 11:37:37;;;;;;;;;;;;;;;6.48;51.73;94807.69;5045854;28;1284;-59
2024/01/16 11:40:22;;;;;;;;;;;;;;;6.43;51.44;94802.81;5046552;28;1283;-60
2024/01/16 11:42:49;;;;;;;;;;;;;;;6.63;51.95;94804.41;5046512;28;1324;-59
2024/01/16 11:45:35;;;;;;;;;;;;;;;6.77;51.96;94805.78;5045183;28;1272;-59
2024/01/16 11:48:08;;;;;;;;;;;;;;;6.89;51.53;94806.44;5043130;28;1957;-60
2024/01/16 11:50:34;;;;;;;;;;;;;;;6.93;51.35;94812.28;5044718;28;1075;-60
2024/01/16 11:53:00;;;;;;;;;;;;;;;7.31;50.40;94813.91;5049340;28;1288;-60
2024/01/16 11:55:30;;;;;;;;;;;;;;;7.56;50.11;94814.16;5042876;28;1359;-60
2024/01/16 11:58:05;;;;;;;;;;;;;;;7.59;49.18;94821.84;5045708;28;1216;-60
2024/01/16 12:00:32;;;;;;;;;;;;;;;7.75;50.03;94829.97;5044493;28;1237;-60
2024/01/16 12:03:03;;;;;;;;;;;;;;;7.95;49.78;94836.00;5046716;28;1217;-60
2024/01/16 12:05:29;;;;;;;;;;;;;;;8.27;48.99;94834.59;5035478;28;993;-60
2024/01/16 12:07:55;;;;;;;;;;;;;;;8.32;48.14;94834.94;5035596;28;1906;-60
2024/01/16 12:10:22;;;;;;;;;;;;;;;8.23;47.98;94841.19;5035515;28;1032;-60
2024/01/16 12:12:49;;;;;;;;;;;;;;;8.06;47.76;94839.41;5035385;28;1017;-60
2024/01/16 12:15:16;;;;;;;;;;;;;;;7.95;48.96;94841.31;5035580;28;1072;-60
2024/01/16 12:17:56;;;;;;;;;;;;;;;7.83;47.64;94837.19;5035279;28;1083;-60
2024/01/16 12:20:22;;;;;;;;;;;;;;;7.94;48.30;94828.97;5034007;28;1049;-60
2024/01/16 12:22:55;;;;;;;;;;;;;;;8.14;48.54;94818.19;5035508;28;980;-60
2024/01/16 12:25:21;;;;;;;;;;;;;;;8.36;46.30;94827.47;5034962;28;1221;-60
2024/01/16 12:27:54;;;;;;;;;;;;;;;8.25;46.34;94830.41;5035150;28;1983;-60
2024/01/16 12:30:20;;;;;;;;;;;;;;;8.53;46.81;94828.47;5034923;28;1067;-60
2024/01/16 12:32:46;;;;;;;;;;;;;;;8.35;47.42;94828.50;5035264;28;1015;-60
2024/01/16 12:35:13;;;;;;;;;;;;;;;8.07;47.82;94815.28;5035141;28;977;-60
2024/01/16 12:37:39;;;;;;;;;;;;;;;7.95;47.32;94819.19;5035131;28;1047;-60
2024/01/16 12:40:06;;;;;;;;;;;;;;;8.12;46.78;94823.66;5034943;28;973;-60
2024/01/16 12:42:32;;;;;;;;;;;;;;;8.25;49.64;94817.06;5034668;28;930;-60
2024/01/16 12:44:59;;;;;;;;;;;;;;;8.29;50.42;94816.63;5034752;28;1048;-60
2024/01/16 12:47:25;;;;;;;;;;;;;;;8.29;47.51;94826.44;5037396;28;1902;-60
2024/01/16 12:49:51;;;;;;;;;;;;;;;8.08;46.95;94827.63;5034640;28;1049;-61
2024/01/16 12:52:18;;;;;;;;;;;;;;;7.82;46.90;94824.88;5040652;28;1162;-61
2024/01/16 12:54:44;;;;;;;;;;;;;;;7.76;47.49;94834.31;5058326;28;1086;-60
2024/01/16 12:57:16;;;;;;;;;;;;;;;7.79;47.54;94827.84;5036036;28;1280;-61
2024/01/16 12:59:42;;;;;;;;;;;;;;;7.69;48.08;94829.75;5045179;28;1236;-62
2024/01/16 13:02:08;;;;;;;;;;;;;;;7.59;47.09;94846.63;5043854;28;1320;-61
2024/01/16 13:04:34;;;;;;;;;;;;;;;7.71;46.50;94839.25;5043485;28;1327;-61
2024/01/16 13:07:01;;;;;;;;;;;;;;;7.88;48.14;94829.59;5044905;28;1995;-61
2024/01/16 13:09:27;;;;;;;;;;;;;;;7.93;46.71;94832.66;5043849;28;1288;-61
2024/01/16 13:11:55;;;;;;;;;;;;;;;7.80;46.23;94843.66;5043328;28;1288;-62
2024/01/16 13:14:21;;;;;;;;;;;;;;;7.43;46.71;94841.94;5044949;28;1261;-61
2024/01/16 13:16:51;;;;;;;;;;;;;;;7.25;47.34;94843.75;5043060;28;1422;-61
2024/01/16 13:19:20;;;;;;;;;;;;;;;7.19;47.61;94839.84;5042870;28;1312;-62
2024/01/16 13:21:46;;;;;;;;;;;;;;;7.35;47.33;94835.72;5043866;28;1221;-61
2024/01/16 13:24:13;;;;;;;;;;;;;;;7.49;47.13;94829.03;5044134;28;1284;-61
2024/01/16 13:26:40;;;;;;;;;;;;;;;7.58;46.80;94846.75;5042354;28;1987;-61
2024/01/16 13:29:09;;;;;;;;;;;;;;;7.56;46.66;94851.41;5043719;28;1284;-61
2024/01/16 13:31:35;;;;;;;;;;;;;;;7.42;48.65;94850.09;5043654;28;1273;-61